sensor_id;sensor_type;location;lat;lon;timestamp;P1;durP1;ratioP1;P2;durP2;ratioP2
71806;SDS011;59655;42.590;23.364;2023-03-14T00:01:51;9.15;;;4.47;;
71806;SDS011;59655;42.590;23.364;2023-03-14T00:04:17;5.22;;;3.08;;
71806;SDS011;59655;42.590;23.364;2023-03-14T00:06:42;7.38;;;3.85;;
71806;SDS011;59655;42.590;23.364;2023-03-14T00:09:07;6.20;;;3.40;;
71806;SDS011;59655;42.590;23.364;2023-03-14T00:11:33;6.85;;;3.83;;
71806;SDS011;59655;42.590;23.364;2023-03-14T00:13:58;6.25;;;3.58;;
71806;SDS011;59655;42.590;23.364;2023-03-14T00:16:25;5.18;;;3.42;;
71806;SDS011;59655;42.590;23.364;2023-03-14T00:18:51;6.50;;;3.28;;
71806;SDS011;59655;42.590;23.364;2023-03-14T00:21:17;5.53;;;3.28;;
71806;SDS011;59655;42.590;23.364;2023-03-14T00:23:44;7.20;;;4.30;;
71806;SDS011;59655;42.590;23.364;2023-03-14T00:26:11;11.38;;;4.85;;
71806;SDS011;59655;42.590;23.364;2023-03-14T00:28:41;18.38;;;8.07;;
71806;SDS011;59655;42.590;23.364;2023-03-14T00:31:08;17.70;;;8.63;;
71806;SDS011;59655;42.590;23.364;2023-03-14T00:33:35;15.15;;;7.28;;
71806;SDS011;59655;42.590;23.364;2023-03-14T00:36:02;15.07;;;7.93;;
71806;SDS011;59655;42.590;23.364;2023-03-14T00:38:30;12.70;;;6.25;;
71806;SDS011;59655;42.590;23.364;2023-03-14T00:40:56;12.27;;;5.75;;
71806;SDS011;59655;42.590;23.364;2023-03-14T00:43:22;7.72;;;4.65;;
71806;SDS011;59655;42.590;23.364;2023-03-14T00:45:48;13.77;;;4.68;;
71806;SDS011;59655;42.590;23.364;2023-03-14T00:48:14;10.70;;;5.32;;
71806;SDS011;59655;42.590;23.364;2023-03-14T00:50:40;17.02;;;6.47;;
71806;SDS011;59655;42.590;23.364;2023-03-14T00:53:05;15.18;;;7.47;;
71806;SDS011;59655;42.590;23.364;2023-03-14T00:55:30;22.50;;;8.65;;
71806;SDS011;59655;42.590;23.364;2023-03-14T00:57:56;23.25;;;9.38;;
71806;SDS011;59655;42.590;23.364;2023-03-14T01:00:21;22.75;;;9.95;;
71806;SDS011;59655;42.590;23.364;2023-03-14T01:02:47;15.80;;;7.75;;
71806;SDS011;59655;42.590;23.364;2023-03-14T01:05:12;22.95;;;9.80;;
71806;SDS011;59655;42.590;23.364;2023-03-14T01:07:38;25.52;;;11.02;;
71806;SDS011;59655;42.590;23.364;2023-03-14T01:10:04;25.55;;;10.68;;
71806;SDS011;59655;42.590;23.364;2023-03-14T01:12:31;22.20;;;9.80;;
71806;SDS011;59655;42.590;23.364;2023-03-14T01:14:56;23.80;;;9.85;;
71806;SDS011;59655;42.590;23.364;2023-03-14T01:17:22;19.50;;;8.20;;
71806;SDS011;59655;42.590;23.364;2023-03-14T01:19:47;20.77;;;8.63;;
71806;SDS011;59655;42.590;23.364;2023-03-14T01:22:13;15.00;;;5.82;;
71806;SDS011;59655;42.590;23.364;2023-03-14T01:24:38;9.50;;;4.45;;
71806;SDS011;59655;42.590;23.364;2023-03-14T01:27:04;10.02;;;5.20;;
71806;SDS011;59655;42.590;23.364;2023-03-14T01:29:29;7.50;;;4.40;;
71806;SDS011;59655;42.590;23.364;2023-03-14T01:31:54;7.93;;;4.10;;
71806;SDS011;59655;42.590;23.364;2023-03-14T01:34:20;9.02;;;4.65;;
71806;SDS011;59655;42.590;23.364;2023-03-14T01:36:45;9.82;;;4.78;;
71806;SDS011;59655;42.590;23.364;2023-03-14T01:39:11;8.43;;;5.25;;
71806;SDS011;59655;42.590;23.364;2023-03-14T01:41:38;8.35;;;4.80;;
71806;SDS011;59655;42.590;23.364;2023-03-14T01:44:04;9.10;;;4.30;;
71806;SDS011;59655;42.590;23.364;2023-03-14T01:51:34;10.18;;;5.80;;
71806;SDS011;59655;42.590;23.364;2023-03-14T01:54:05;11.52;;;5.68;;
71806;SDS011;59655;42.590;23.364;2023-03-14T01:56:35;14.45;;;6.45;;
71806;SDS011;59655;42.590;23.364;2023-03-14T01:59:01;14.30;;;6.20;;
71806;SDS011;59655;42.590;23.364;2023-03-14T02:01:31;13.55;;;6.50;;
71806;SDS011;59655;42.590;23.364;2023-03-14T02:03:58;15.23;;;6.97;;
71806;SDS011;59655;42.590;23.364;2023-03-14T02:06:27;14.40;;;6.97;;
71806;SDS011;59655;42.590;23.364;2023-03-14T02:08:58;16.85;;;6.93;;
71806;SDS011;59655;42.590;23.364;2023-03-14T02:11:26;10.60;;;6.45;;
71806;SDS011;59655;42.590;23.364;2023-03-14T02:16:19;12.65;;;6.65;;
71806;SDS011;59655;42.590;23.364;2023-03-14T02:18:45;14.80;;;6.72;;
71806;SDS011;59655;42.590;23.364;2023-03-14T02:21:18;11.95;;;6.57;;
71806;SDS011;59655;42.590;23.364;2023-03-14T02:27:13;13.23;;;5.55;;
71806;SDS011;59655;42.590;23.364;2023-03-14T02:29:47;10.98;;;6.03;;
71806;SDS011;59655;42.590;23.364;2023-03-14T02:32:22;12.63;;;6.00;;
71806;SDS011;59655;42.590;23.364;2023-03-14T02:34:55;13.68;;;5.72;;
71806;SDS011;59655;42.590;23.364;2023-03-14T02:39:52;11.60;;;5.38;;
71806;SDS011;59655;42.590;23.364;2023-03-14T02:42:17;10.88;;;5.65;;
71806;SDS011;59655;42.590;23.364;2023-03-14T02:44:54;10.23;;;4.50;;
71806;SDS011;59655;42.590;23.364;2023-03-14T02:47:29;8.23;;;4.38;;
71806;SDS011;59655;42.590;23.364;2023-03-14T02:50:06;6.65;;;4.25;;
71806;SDS011;59655;42.590;23.364;2023-03-14T02:52:35;7.20;;;4.00;;
71806;SDS011;59655;42.590;23.364;2023-03-14T02:55:01;8.75;;;3.72;;
71806;SDS011;59655;42.590;23.364;2023-03-14T02:57:26;8.85;;;3.60;;
71806;SDS011;59655;42.590;23.364;2023-03-14T02:59:51;5.93;;;3.30;;
71806;SDS011;59655;42.590;23.364;2023-03-14T03:02:17;5.32;;;2.75;;
71806;SDS011;59655;42.590;23.364;2023-03-14T03:04:42;8.02;;;4.88;;
71806;SDS011;59655;42.590;23.364;2023-03-14T03:07:08;8.23;;;3.33;;
71806;SDS011;59655;42.590;23.364;2023-03-14T03:09:33;7.97;;;3.33;;
71806;SDS011;59655;42.590;23.364;2023-03-14T03:11:59;8.55;;;3.45;;
71806;SDS011;59655;42.590;23.364;2023-03-14T03:14:24;5.95;;;3.30;;
71806;SDS011;59655;42.590;23.364;2023-03-14T03:16:50;8.23;;;3.17;;
71806;SDS011;59655;42.590;23.364;2023-03-14T03:19:15;12.55;;;3.10;;
71806;SDS011;59655;42.590;23.364;2023-03-14T03:21:42;6.68;;;3.17;;
71806;SDS011;59655;42.590;23.364;2023-03-14T03:24:08;6.63;;;3.40;;
71806;SDS011;59655;42.590;23.364;2023-03-14T03:26:34;8.55;;;3.30;;
71806;SDS011;59655;42.590;23.364;2023-03-14T03:29:00;5.85;;;2.35;;
71806;SDS011;59655;42.590;23.364;2023-03-14T03:31:25;4.60;;;2.50;;
71806;SDS011;59655;42.590;23.364;2023-03-14T03:33:51;5.82;;;2.65;;
71806;SDS011;59655;42.590;23.364;2023-03-14T03:36:20;9.95;;;3.65;;
71806;SDS011;59655;42.590;23.364;2023-03-14T03:38:50;7.93;;;3.60;;
71806;SDS011;59655;42.590;23.364;2023-03-14T03:41:15;7.05;;;3.40;;
71806;SDS011;59655;42.590;23.364;2023-03-14T03:43:41;7.80;;;4.03;;
71806;SDS011;59655;42.590;23.364;2023-03-14T03:46:07;9.95;;;5.13;;
71806;SDS011;59655;42.590;23.364;2023-03-14T03:48:32;12.35;;;6.80;;
71806;SDS011;59655;42.590;23.364;2023-03-14T03:50:58;12.15;;;5.32;;
71806;SDS011;59655;42.590;23.364;2023-03-14T03:53:24;6.40;;;3.42;;
71806;SDS011;59655;42.590;23.364;2023-03-14T03:55:49;5.40;;;3.10;;
71806;SDS011;59655;42.590;23.364;2023-03-14T03:58:15;7.22;;;3.20;;
71806;SDS011;59655;42.590;23.364;2023-03-14T04:00:40;7.85;;;3.47;;
71806;SDS011;59655;42.590;23.364;2023-03-14T04:03:06;6.10;;;3.30;;
71806;SDS011;59655;42.590;23.364;2023-03-14T04:05:31;6.90;;;4.60;;
71806;SDS011;59655;42.590;23.364;2023-03-14T04:07:57;7.85;;;4.40;;
71806;SDS011;59655;42.590;23.364;2023-03-14T04:10:22;9.50;;;4.47;;
71806;SDS011;59655;42.590;23.364;2023-03-14T04:12:48;8.50;;;3.72;;
71806;SDS011;59655;42.590;23.364;2023-03-14T04:15:13;6.28;;;3.42;;
71806;SDS011;59655;42.590;23.364;2023-03-14T04:17:38;5.93;;;3.47;;
71806;SDS011;59655;42.590;23.364;2023-03-14T04:20:04;6.20;;;3.60;;
71806;SDS011;59655;42.590;23.364;2023-03-14T04:22:30;6.82;;;3.10;;
71806;SDS011;59655;42.590;23.364;2023-03-14T04:24:55;5.75;;;3.33;;
71806;SDS011;59655;42.590;23.364;2023-03-14T04:27:21;7.53;;;3.33;;
71806;SDS011;59655;42.590;23.364;2023-03-14T04:29:46;8.07;;;4.25;;
71806;SDS011;59655;42.590;23.364;2023-03-14T04:32:12;11.88;;;6.38;;
71806;SDS011;59655;42.590;23.364;2023-03-14T04:34:37;12.27;;;6.05;;
71806;SDS011;59655;42.590;23.364;2023-03-14T04:37:02;10.73;;;5.85;;
71806;SDS011;59655;42.590;23.364;2023-03-14T04:39:28;12.90;;;6.55;;
71806;SDS011;59655;42.590;23.364;2023-03-14T04:41:54;18.00;;;7.40;;
71806;SDS011;59655;42.590;23.364;2023-03-14T04:44:19;10.85;;;4.93;;
71806;SDS011;59655;42.590;23.364;2023-03-14T04:46:44;13.15;;;4.10;;
71806;SDS011;59655;42.590;23.364;2023-03-14T04:49:10;20.73;;;8.20;;
71806;SDS011;59655;42.590;23.364;2023-03-14T04:51:35;43.75;;;17.85;;
71806;SDS011;59655;42.590;23.364;2023-03-14T04:54:01;10.43;;;3.63;;
71806;SDS011;59655;42.590;23.364;2023-03-14T04:56:26;5.63;;;2.53;;
71806;SDS011;59655;42.590;23.364;2023-03-14T04:58:52;3.67;;;2.15;;
71806;SDS011;59655;42.590;23.364;2023-03-14T05:01:18;5.45;;;2.40;;
71806;SDS011;59655;42.590;23.364;2023-03-14T05:03:43;12.00;;;3.50;;
71806;SDS011;59655;42.590;23.364;2023-03-14T05:06:09;18.50;;;6.78;;
71806;SDS011;59655;42.590;23.364;2023-03-14T05:08:34;13.25;;;5.75;;
71806;SDS011;59655;42.590;23.364;2023-03-14T05:11:00;45.15;;;17.15;;
71806;SDS011;59655;42.590;23.364;2023-03-14T05:13:25;51.58;;;19.98;;
71806;SDS011;59655;42.590;23.364;2023-03-14T05:15:51;25.73;;;10.63;;
71806;SDS011;59655;42.590;23.364;2023-03-14T05:18:17;24.23;;;8.15;;
71806;SDS011;59655;42.590;23.364;2023-03-14T05:20:43;16.33;;;6.10;;
71806;SDS011;59655;42.590;23.364;2023-03-14T05:23:08;17.98;;;5.25;;
71806;SDS011;59655;42.590;23.364;2023-03-14T05:25:35;26.20;;;7.30;;
71806;SDS011;59655;42.590;23.364;2023-03-14T05:28:00;18.05;;;5.15;;
71806;SDS011;59655;42.590;23.364;2023-03-14T05:30:26;18.95;;;6.32;;
71806;SDS011;59655;42.590;23.364;2023-03-14T05:32:53;23.90;;;6.75;;
71806;SDS011;59655;42.590;23.364;2023-03-14T05:35:18;29.38;;;8.38;;
71806;SDS011;59655;42.590;23.364;2023-03-14T05:37:43;17.23;;;6.82;;
71806;SDS011;59655;42.590;23.364;2023-03-14T05:40:09;17.02;;;7.03;;
71806;SDS011;59655;42.590;23.364;2023-03-14T05:42:35;22.15;;;8.38;;
71806;SDS011;59655;42.590;23.364;2023-03-14T05:45:00;23.20;;;9.73;;
71806;SDS011;59655;42.590;23.364;2023-03-14T05:47:26;20.10;;;9.38;;
71806;SDS011;59655;42.590;23.364;2023-03-14T05:49:51;34.67;;;10.07;;
71806;SDS011;59655;42.590;23.364;2023-03-14T05:52:16;22.35;;;10.50;;
71806;SDS011;59655;42.590;23.364;2023-03-14T05:54:42;20.42;;;8.68;;
71806;SDS011;59655;42.590;23.364;2023-03-14T05:57:07;16.55;;;8.00;;
71806;SDS011;59655;42.590;23.364;2023-03-14T05:59:33;17.77;;;7.07;;
71806;SDS011;59655;42.590;23.364;2023-03-14T06:01:58;26.88;;;10.98;;
71806;SDS011;59655;42.590;23.364;2023-03-14T06:04:23;24.58;;;9.93;;
71806;SDS011;59655;42.590;23.364;2023-03-14T06:06:49;23.15;;;8.68;;
71806;SDS011;59655;42.590;23.364;2023-03-14T06:09:15;16.05;;;6.72;;
71806;SDS011;59655;42.590;23.364;2023-03-14T06:11:41;7.18;;;3.25;;
71806;SDS011;59655;42.590;23.364;2023-03-14T06:14:06;5.40;;;2.80;;
71806;SDS011;59655;42.590;23.364;2023-03-14T06:16:32;5.55;;;2.40;;
71806;SDS011;59655;42.590;23.364;2023-03-14T06:18:57;8.27;;;2.70;;
71806;SDS011;59655;42.590;23.364;2023-03-14T06:21:23;6.53;;;2.95;;
71806;SDS011;59655;42.590;23.364;2023-03-14T06:23:48;6.03;;;2.90;;
71806;SDS011;59655;42.590;23.364;2023-03-14T06:26:13;6.68;;;2.80;;
71806;SDS011;59655;42.590;23.364;2023-03-14T06:28:39;5.57;;;3.08;;
71806;SDS011;59655;42.590;23.364;2023-03-14T06:31:04;5.15;;;3.25;;
71806;SDS011;59655;42.590;23.364;2023-03-14T06:33:30;6.65;;;3.08;;
71806;SDS011;59655;42.590;23.364;2023-03-14T06:35:55;5.25;;;2.92;;
71806;SDS011;59655;42.590;23.364;2023-03-14T06:38:21;6.65;;;3.53;;
71806;SDS011;59655;42.590;23.364;2023-03-14T06:40:46;6.35;;;3.28;;
71806;SDS011;59655;42.590;23.364;2023-03-14T06:43:12;5.85;;;2.90;;
71806;SDS011;59655;42.590;23.364;2023-03-14T06:45:37;6.43;;;3.33;;
71806;SDS011;59655;42.590;23.364;2023-03-14T06:48:03;5.43;;;2.67;;
71806;SDS011;59655;42.590;23.364;2023-03-14T06:50:28;6.57;;;3.55;;
71806;SDS011;59655;42.590;23.364;2023-03-14T06:52:54;8.43;;;3.70;;
71806;SDS011;59655;42.590;23.364;2023-03-14T06:55:20;5.15;;;3.38;;
71806;SDS011;59655;42.590;23.364;2023-03-14T06:57:45;6.15;;;3.30;;
71806;SDS011;59655;42.590;23.364;2023-03-14T07:00:11;6.00;;;2.90;;
71806;SDS011;59655;42.590;23.364;2023-03-14T07:02:38;5.05;;;2.70;;
71806;SDS011;59655;42.590;23.364;2023-03-14T07:05:04;4.63;;;3.00;;
71806;SDS011;59655;42.590;23.364;2023-03-14T07:07:30;6.60;;;3.40;;
71806;SDS011;59655;42.590;23.364;2023-03-14T07:09:55;5.82;;;2.85;;
71806;SDS011;59655;42.590;23.364;2023-03-14T07:12:20;7.60;;;2.95;;
71806;SDS011;59655;42.590;23.364;2023-03-14T07:14:46;6.90;;;3.22;;
71806;SDS011;59655;42.590;23.364;2023-03-14T07:17:11;6.68;;;3.30;;
71806;SDS011;59655;42.590;23.364;2023-03-14T07:19:37;7.13;;;3.05;;
71806;SDS011;59655;42.590;23.364;2023-03-14T07:22:03;5.85;;;3.45;;
71806;SDS011;59655;42.590;23.364;2023-03-14T07:24:29;7.50;;;3.42;;
71806;SDS011;59655;42.590;23.364;2023-03-14T07:26:54;11.07;;;3.58;;
71806;SDS011;59655;42.590;23.364;2023-03-14T07:29:20;7.53;;;4.32;;
71806;SDS011;59655;42.590;23.364;2023-03-14T07:31:45;5.57;;;3.45;;
71806;SDS011;59655;42.590;23.364;2023-03-14T07:34:11;7.28;;;3.70;;
71806;SDS011;59655;42.590;23.364;2023-03-14T07:36:36;7.03;;;3.50;;
71806;SDS011;59655;42.590;23.364;2023-03-14T07:39:02;5.13;;;3.15;;
71806;SDS011;59655;42.590;23.364;2023-03-14T07:41:29;7.25;;;3.78;;
71806;SDS011;59655;42.590;23.364;2023-03-14T07:43:54;7.07;;;3.53;;
71806;SDS011;59655;42.590;23.364;2023-03-14T07:46:19;6.20;;;3.58;;
71806;SDS011;59655;42.590;23.364;2023-03-14T07:48:45;6.45;;;3.65;;
71806;SDS011;59655;42.590;23.364;2023-03-14T07:51:10;7.13;;;3.78;;
71806;SDS011;59655;42.590;23.364;2023-03-14T07:53:36;7.43;;;4.00;;
71806;SDS011;59655;42.590;23.364;2023-03-14T07:56:01;6.03;;;3.83;;
71806;SDS011;59655;42.590;23.364;2023-03-14T07:58:26;5.60;;;3.53;;
71806;SDS011;59655;42.590;23.364;2023-03-14T08:00:52;7.15;;;3.70;;
71806;SDS011;59655;42.590;23.364;2023-03-14T08:03:18;5.88;;;3.20;;
71806;SDS011;59655;42.590;23.364;2023-03-14T08:05:43;7.70;;;3.78;;
71806;SDS011;59655;42.590;23.364;2023-03-14T08:08:12;6.22;;;4.13;;
71806;SDS011;59655;42.590;23.364;2023-03-14T08:10:37;7.38;;;3.70;;
71806;SDS011;59655;42.590;23.364;2023-03-14T08:13:02;6.97;;;3.90;;
71806;SDS011;59655;42.590;23.364;2023-03-14T08:15:28;7.60;;;4.18;;
71806;SDS011;59655;42.590;23.364;2023-03-14T08:17:55;7.00;;;3.78;;
71806;SDS011;59655;42.590;23.364;2023-03-14T08:20:22;7.15;;;4.35;;
71806;SDS011;59655;42.590;23.364;2023-03-14T08:22:49;7.45;;;3.85;;
71806;SDS011;59655;42.590;23.364;2023-03-14T08:25:15;11.15;;;4.45;;
71806;SDS011;59655;42.590;23.364;2023-03-14T08:27:41;8.50;;;4.55;;
71806;SDS011;59655;42.590;23.364;2023-03-14T08:30:09;6.90;;;3.95;;
71806;SDS011;59655;42.590;23.364;2023-03-14T08:35:01;10.05;;;5.10;;
71806;SDS011;59655;42.590;23.364;2023-03-14T08:37:27;7.85;;;4.30;;
71806;SDS011;59655;42.590;23.364;2023-03-14T08:39:53;8.63;;;4.53;;
71806;SDS011;59655;42.590;23.364;2023-03-14T08:42:18;7.25;;;4.00;;
71806;SDS011;59655;42.590;23.364;2023-03-14T08:44:44;8.25;;;4.78;;
71806;SDS011;59655;42.590;23.364;2023-03-14T08:47:10;7.93;;;4.88;;
71806;SDS011;59655;42.590;23.364;2023-03-14T08:49:35;10.90;;;4.80;;
71806;SDS011;59655;42.590;23.364;2023-03-14T08:52:01;8.23;;;4.97;;
71806;SDS011;59655;42.590;23.364;2023-03-14T08:54:28;8.60;;;3.83;;
71806;SDS011;59655;42.590;23.364;2023-03-14T08:56:53;9.23;;;4.53;;
71806;SDS011;59655;42.590;23.364;2023-03-14T08:59:19;7.00;;;4.30;;
71806;SDS011;59655;42.590;23.364;2023-03-14T09:01:44;7.88;;;4.47;;
71806;SDS011;59655;42.590;23.364;2023-03-14T09:04:10;8.35;;;4.57;;
71806;SDS011;59655;42.590;23.364;2023-03-14T09:06:35;9.80;;;4.80;;
71806;SDS011;59655;42.590;23.364;2023-03-14T09:09:01;9.88;;;6.53;;
71806;SDS011;59655;42.590;23.364;2023-03-14T09:11:26;8.40;;;4.65;;
71806;SDS011;59655;42.590;23.364;2023-03-14T09:13:52;10.57;;;4.80;;
71806;SDS011;59655;42.590;23.364;2023-03-14T09:16:17;11.57;;;5.18;;
71806;SDS011;59655;42.590;23.364;2023-03-14T09:18:43;10.32;;;5.20;;
71806;SDS011;59655;42.590;23.364;2023-03-14T09:21:08;9.93;;;5.13;;
71806;SDS011;59655;42.590;23.364;2023-03-14T09:23:34;8.52;;;4.57;;
71806;SDS011;59655;42.590;23.364;2023-03-14T09:25:59;7.20;;;4.40;;
71806;SDS011;59655;42.590;23.364;2023-03-14T09:28:25;8.45;;;4.65;;
71806;SDS011;59655;42.590;23.364;2023-03-14T09:30:51;8.95;;;4.45;;
71806;SDS011;59655;42.590;23.364;2023-03-14T09:33:17;8.52;;;4.85;;
71806;SDS011;59655;42.590;23.364;2023-03-14T09:35:43;7.68;;;4.60;;
71806;SDS011;59655;42.590;23.364;2023-03-14T09:38:09;8.30;;;4.50;;
71806;SDS011;59655;42.590;23.364;2023-03-14T09:40:35;10.15;;;4.65;;
71806;SDS011;59655;42.590;23.364;2023-03-14T09:43:01;8.75;;;4.55;;
71806;SDS011;59655;42.590;23.364;2023-03-14T09:45:28;9.13;;;4.40;;
71806;SDS011;59655;42.590;23.364;2023-03-14T09:47:57;8.52;;;4.57;;
71806;SDS011;59655;42.590;23.364;2023-03-14T09:50:24;11.23;;;4.70;;
71806;SDS011;59655;42.590;23.364;2023-03-14T09:53:00;9.20;;;4.78;;
71806;SDS011;59655;42.590;23.364;2023-03-14T09:55:29;13.05;;;5.65;;
71806;SDS011;59655;42.590;23.364;2023-03-14T09:57:58;8.77;;;4.90;;
71806;SDS011;59655;42.590;23.364;2023-03-14T10:00:27;10.73;;;5.25;;
71806;SDS011;59655;42.590;23.364;2023-03-14T10:05:40;11.10;;;4.55;;
71806;SDS011;59655;42.590;23.364;2023-03-14T10:08:09;9.65;;;4.68;;
71806;SDS011;59655;42.590;23.364;2023-03-14T10:10:35;6.90;;;4.07;;
71806;SDS011;59655;42.590;23.364;2023-03-14T10:13:15;10.10;;;4.40;;
71806;SDS011;59655;42.590;23.364;2023-03-14T10:15:46;7.00;;;4.72;;
71806;SDS011;59655;42.590;23.364;2023-03-14T10:18:19;8.48;;;4.18;;
71806;SDS011;59655;42.590;23.364;2023-03-14T10:20:47;6.85;;;4.65;;
71806;SDS011;59655;42.590;23.364;2023-03-14T10:25:43;7.35;;;4.35;;
71806;SDS011;59655;42.590;23.364;2023-03-14T10:28:45;10.38;;;5.07;;
71806;SDS011;59655;42.590;23.364;2023-03-14T10:31:08;7.55;;;4.60;;
71806;SDS011;59655;42.590;23.364;2023-03-14T10:33:34;7.65;;;4.15;;
71806;SDS011;59655;42.590;23.364;2023-03-14T10:38:39;8.65;;;4.80;;
71806;SDS011;59655;42.590;23.364;2023-03-14T10:41:15;9.48;;;4.70;;
71806;SDS011;59655;42.590;23.364;2023-03-14T10:43:53;12.43;;;5.10;;
71806;SDS011;59655;42.590;23.364;2023-03-14T10:46:21;8.90;;;4.25;;
71806;SDS011;59655;42.590;23.364;2023-03-14T10:48:49;5.43;;;3.63;;
71806;SDS011;59655;42.590;23.364;2023-03-14T10:51:19;8.23;;;4.22;;
71806;SDS011;59655;42.590;23.364;2023-03-14T10:53:50;8.05;;;4.45;;
71806;SDS011;59655;42.590;23.364;2023-03-14T10:56:32;8.82;;;4.82;;
71806;SDS011;59655;42.590;23.364;2023-03-14T10:59:00;8.40;;;4.00;;
71806;SDS011;59655;42.590;23.364;2023-03-14T11:14:57;6.85;;;3.88;;
71806;SDS011;59655;42.590;23.364;2023-03-14T11:26:07;6.65;;;3.53;;
71806;SDS011;59655;42.590;23.364;2023-03-14T11:28:45;7.53;;;3.25;;
71806;SDS011;59655;42.590;23.364;2023-03-14T11:31:17;6.80;;;3.00;;
71806;SDS011;59655;42.590;23.364;2023-03-14T11:39:17;5.10;;;2.50;;
71806;SDS011;59655;42.590;23.364;2023-03-14T11:41:45;6.22;;;2.38;;
71806;SDS011;59655;42.590;23.364;2023-03-14T11:44:23;5.10;;;2.35;;
71806;SDS011;59655;42.590;23.364;2023-03-14T11:46:54;3.95;;;2.28;;
71806;SDS011;59655;42.590;23.364;2023-03-14T11:52:31;3.08;;;2.05;;
71806;SDS011;59655;42.590;23.364;2023-03-14T11:57:44;3.50;;;1.90;;
71806;SDS011;59655;42.590;23.364;2023-03-14T12:00:20;4.95;;;2.28;;
71806;SDS011;59655;42.590;23.364;2023-03-14T12:02:57;4.18;;;1.75;;
71806;SDS011;59655;42.590;23.364;2023-03-14T12:05:39;3.47;;;1.80;;
71806;SDS011;59655;42.590;23.364;2023-03-14T12:08:19;6.32;;;1.98;;
71806;SDS011;59655;42.590;23.364;2023-03-14T12:10:53;4.90;;;2.13;;
71806;SDS011;59655;42.590;23.364;2023-03-14T12:13:21;3.63;;;1.75;;
71806;SDS011;59655;42.590;23.364;2023-03-14T12:15:54;4.18;;;2.00;;
71806;SDS011;59655;42.590;23.364;2023-03-14T12:20:54;4.85;;;1.67;;
71806;SDS011;59655;42.590;23.364;2023-03-14T12:23:22;4.03;;;1.73;;
71806;SDS011;59655;42.590;23.364;2023-03-14T12:26:05;4.63;;;2.25;;
71806;SDS011;59655;42.590;23.364;2023-03-14T12:28:33;3.75;;;1.98;;
71806;SDS011;59655;42.590;23.364;2023-03-14T12:31:22;3.72;;;1.80;;
71806;SDS011;59655;42.590;23.364;2023-03-14T12:34:02;4.03;;;1.88;;
71806;SDS011;59655;42.590;23.364;2023-03-14T12:42:12;6.03;;;2.10;;
71806;SDS011;59655;42.590;23.364;2023-03-14T12:44:43;4.18;;;2.00;;
71806;SDS011;59655;42.590;23.364;2023-03-14T12:49:42;3.40;;;1.75;;
71806;SDS011;59655;42.590;23.364;2023-03-14T12:52:13;4.47;;;1.88;;
71806;SDS011;59655;42.590;23.364;2023-03-14T12:54:43;3.25;;;1.65;;
71806;SDS011;59655;42.590;23.364;2023-03-14T12:57:36;5.47;;;1.90;;
71806;SDS011;59655;42.590;23.364;2023-03-14T13:00:16;8.27;;;1.95;;
71806;SDS011;59655;42.590;23.364;2023-03-14T13:02:44;3.97;;;2.55;;
71806;SDS011;59655;42.590;23.364;2023-03-14T13:15:19;3.28;;;1.92;;
71806;SDS011;59655;42.590;23.364;2023-03-14T13:17:49;5.05;;;1.75;;
71806;SDS011;59655;42.590;23.364;2023-03-14T13:23:02;3.20;;;1.60;;
71806;SDS011;59655;42.590;23.364;2023-03-14T13:25:34;4.13;;;1.90;;
71806;SDS011;59655;42.590;23.364;2023-03-14T13:28:01;3.13;;;1.80;;
71806;SDS011;59655;42.590;23.364;2023-03-14T13:30:29;4.80;;;2.13;;
71806;SDS011;59655;42.590;23.364;2023-03-14T13:33:04;3.72;;;1.80;;
71806;SDS011;59655;42.590;23.364;2023-03-14T13:35:38;3.58;;;1.63;;
71806;SDS011;59655;42.590;23.364;2023-03-14T13:38:13;3.30;;;1.83;;
71806;SDS011;59655;42.590;23.364;2023-03-14T13:40:42;3.35;;;1.48;;
71806;SDS011;59655;42.590;23.364;2023-03-14T13:46:15;3.03;;;1.50;;
71806;SDS011;59655;42.590;23.364;2023-03-14T13:48:43;4.05;;;1.88;;
71806;SDS011;59655;42.590;23.364;2023-03-14T13:51:11;4.20;;;1.60;;
71806;SDS011;59655;42.590;23.364;2023-03-14T13:53:57;5.78;;;1.58;;
71806;SDS011;59655;42.590;23.364;2023-03-14T13:56:25;3.90;;;1.80;;
71806;SDS011;59655;42.590;23.364;2023-03-14T13:58:53;4.25;;;1.90;;
71806;SDS011;59655;42.590;23.364;2023-03-14T14:01:29;2.75;;;1.60;;
71806;SDS011;59655;42.590;23.364;2023-03-14T14:03:57;3.83;;;1.83;;
71806;SDS011;59655;42.590;23.364;2023-03-14T14:08:56;3.67;;;1.88;;
71806;SDS011;59655;42.590;23.364;2023-03-14T14:11:31;5.53;;;2.08;;
71806;SDS011;59655;42.590;23.364;2023-03-14T14:14:19;3.20;;;1.50;;
71806;SDS011;59655;42.590;23.364;2023-03-14T14:16:49;4.55;;;1.98;;
71806;SDS011;59655;42.590;23.364;2023-03-14T14:19:16;3.60;;;1.75;;
71806;SDS011;59655;42.590;23.364;2023-03-14T14:24:11;7.45;;;3.20;;
71806;SDS011;59655;42.590;23.364;2023-03-14T14:26:50;11.82;;;5.80;;
71806;SDS011;59655;42.590;23.364;2023-03-14T14:29:23;9.05;;;5.28;;
71806;SDS011;59655;42.590;23.364;2023-03-14T14:37:53;6.63;;;2.85;;
71806;SDS011;59655;42.590;23.364;2023-03-14T14:42:45;7.88;;;4.38;;
71806;SDS011;59655;42.590;23.364;2023-03-14T14:45:33;15.23;;;9.23;;
71806;SDS011;59655;42.590;23.364;2023-03-14T14:50:36;5.55;;;3.20;;
71806;SDS011;59655;42.590;23.364;2023-03-14T14:53:19;12.93;;;5.72;;
71806;SDS011;59655;42.590;23.364;2023-03-14T14:55:45;7.95;;;5.75;;
71806;SDS011;59655;42.590;23.364;2023-03-14T14:58:12;9.55;;;3.00;;
71806;SDS011;59655;42.590;23.364;2023-03-14T15:00:39;6.07;;;5.40;;
71806;SDS011;59655;42.590;23.364;2023-03-14T15:03:10;4.18;;;2.45;;
71806;SDS011;59655;42.590;23.364;2023-03-14T15:05:39;7.13;;;2.03;;
71806;SDS011;59655;42.590;23.364;2023-03-14T15:08:09;8.57;;;2.10;;
71806;SDS011;59655;42.590;23.364;2023-03-14T15:10:36;37.50;;;4.60;;
71806;SDS011;59655;42.590;23.364;2023-03-14T15:13:02;13.15;;;5.18;;
71806;SDS011;59655;42.590;23.364;2023-03-14T15:15:27;4.65;;;2.00;;
71806;SDS011;59655;42.590;23.364;2023-03-14T15:17:52;4.00;;;1.95;;
71806;SDS011;59655;42.590;23.364;2023-03-14T15:20:18;6.32;;;2.53;;
71806;SDS011;59655;42.590;23.364;2023-03-14T15:22:44;12.70;;;4.32;;
71806;SDS011;59655;42.590;23.364;2023-03-14T15:25:10;7.10;;;2.90;;
71806;SDS011;59655;42.590;23.364;2023-03-14T15:27:37;12.30;;;2.75;;
71806;SDS011;59655;42.590;23.364;2023-03-14T15:30:09;15.60;;;3.15;;
71806;SDS011;59655;42.590;23.364;2023-03-14T15:32:36;6.22;;;2.20;;
71806;SDS011;59655;42.590;23.364;2023-03-14T15:35:02;5.35;;;2.50;;
71806;SDS011;59655;42.590;23.364;2023-03-14T15:37:27;4.53;;;2.30;;
71806;SDS011;59655;42.590;23.364;2023-03-14T15:39:52;5.13;;;2.10;;
71806;SDS011;59655;42.590;23.364;2023-03-14T15:42:18;3.60;;;2.58;;
71806;SDS011;59655;42.590;23.364;2023-03-14T15:44:43;3.50;;;2.30;;
71806;SDS011;59655;42.590;23.364;2023-03-14T15:47:10;3.13;;;1.45;;
71806;SDS011;59655;42.590;23.364;2023-03-14T15:49:35;4.93;;;2.05;;
71806;SDS011;59655;42.590;23.364;2023-03-14T15:52:01;3.38;;;1.60;;
71806;SDS011;59655;42.590;23.364;2023-03-14T15:54:27;4.28;;;2.83;;
71806;SDS011;59655;42.590;23.364;2023-03-14T15:56:56;7.88;;;5.70;;
71806;SDS011;59655;42.590;23.364;2023-03-14T15:59:21;16.92;;;12.93;;
71806;SDS011;59655;42.590;23.364;2023-03-14T16:01:47;21.95;;;13.23;;
71806;SDS011;59655;42.590;23.364;2023-03-14T16:04:13;17.45;;;10.73;;
71806;SDS011;59655;42.590;23.364;2023-03-14T16:06:39;16.58;;;10.52;;
71806;SDS011;59655;42.590;23.364;2023-03-14T16:09:04;17.23;;;10.68;;
71806;SDS011;59655;42.590;23.364;2023-03-14T16:11:30;19.35;;;9.77;;
71806;SDS011;59655;42.590;23.364;2023-03-14T16:13:55;13.88;;;9.02;;